Time;durP1;ratioP1;P1;durP2;ratioP2;P2;SDS_P1;SDS_P2;PMS_P1;PMS_P2;Temp;Humidity;BMP_temperature;BMP_pressure;BME280_temperature;BME280_humidity;BME280_pressure;Samples;Min_cycle;Max_cycle;Signal;HPM_P1;HPM_P2
2022/05/14 00:00:43;;;;;;;14.90;4.88;;;11.20;99.90;;;;;;5065567;28;20083;-79
2022/05/14 00:03:09;;;;;;;21.88;4.63;;;11.10;99.90;;;;;;5045373;28;20045;-78
2022/05/14 00:05:35;;;;;;;26.23;5.13;;;11.10;99.90;;;;;;5063554;28;20397;-79
2022/05/14 00:08:00;;;;;;;19.10;6.20;;;11.00;99.90;;;;;;5063168;28;20083;-79
2022/05/14 00:10:30;;;;;;;14.88;4.38;;;11.00;99.90;;;;;;5060447;28;20033;-79
2022/05/14 00:13:05;;;;;;;13.68;4.00;;;11.10;99.90;;;;;;5060537;28;20064;-78
2022/05/14 00:15:33;;;;;;;18.15;5.03;;;11.00;99.90;;;;;;5061899;28;20045;-79
2022/05/14 00:17:59;;;;;;;20.20;4.63;;;11.00;99.90;;;;;;5058804;28;20045;-79
2022/05/14 00:20:25;;;;;;;18.80;4.53;;;11.00;99.90;;;;;;5058638;28;20116;-80
2022/05/14 00:22:52;;;;;;;23.00;5.30;;;10.90;99.90;;;;;;5060195;28;20402;-80
2022/05/14 00:25:19;;;;;;;20.13;5.18;;;10.90;99.90;;;;;;5060112;28;20055;-79
2022/05/14 00:27:45;;;;;;;17.23;6.43;;;11.00;99.90;;;;;;5060131;28;20045;-79
2022/05/14 00:30:13;;;;;;;24.98;5.65;;;10.90;99.90;;;;;;5076004;28;20528;-78
2022/05/14 00:32:40;;;;;;;11.60;4.35;;;11.00;99.90;;;;;;5060740;28;20080;-80
2022/05/14 00:35:07;;;;;;;12.52;5.50;;;11.20;99.90;;;;;;5061629;28;20041;-78
2022/05/14 00:37:34;;;;;;;20.00;4.78;;;10.90;99.90;;;;;;5062159;28;20063;-80
2022/05/14 00:40:01;;;;;;;20.13;5.80;;;10.90;99.90;;;;;;5059970;28;20128;-79
2022/05/14 00:42:27;;;;;;;19.52;4.70;;;10.70;99.90;;;;;;5059837;28;20061;-77
2022/05/14 00:44:52;;;;;;;17.52;5.22;;;10.60;99.90;;;;;;5060910;28;20050;-80
2022/05/14 00:47:19;;;;;;;14.57;6.30;;;10.50;99.90;;;;;;5060827;28;20052;-79
2022/05/14 00:49:45;;;;;;;16.23;4.97;;;10.40;99.90;;;;;;5061204;28;20075;-79
2022/05/14 00:52:14;;;;;;;16.35;4.88;;;10.40;99.90;;;;;;5059195;28;20037;-79
2022/05/14 00:54:49;;;;;;;16.33;4.75;;;10.40;99.90;;;;;;5061000;28;20056;-79
2022/05/14 00:57:20;;;;;;;17.23;4.60;;;10.40;99.90;;;;;;5061984;28;20500;-80
2022/05/14 00:59:45;;;;;;;22.02;4.68;;;10.30;99.90;;;;;;5061612;28;20057;-80
2022/05/14 01:02:11;;;;;;;14.52;4.65;;;10.30;99.90;;;;;;5059669;28;20052;-80
2022/05/14 01:04:41;;;;;;;19.75;5.82;;;10.30;99.90;;;;;;5062159;28;20048;-78
2022/05/14 01:07:13;;;;;;;23.25;6.70;;;10.30;99.90;;;;;;5061473;28;20069;-78
2022/05/14 01:09:43;;;;;;;25.95;5.88;;;10.40;99.90;;;;;;5060263;28;20548;-79
2022/05/14 01:12:10;;;;;;;18.08;5.57;;;10.50;99.90;;;;;;5061127;28;20048;-80
2022/05/14 01:14:38;;;;;;;17.25;6.10;;;10.50;99.90;;;;;;5062272;28;20068;-79
2022/05/14 01:17:04;;;;;;;15.60;4.72;;;10.60;99.90;;;;;;5043536;28;20049;-80
2022/05/14 01:19:30;;;;;;;24.73;7.55;;;10.70;99.90;;;;;;5061972;28;20076;-79
2022/05/14 01:22:34;;;;;;;18.60;6.13;;;10.80;99.90;;;;;;5060524;28;20037;-79
2022/05/14 01:27:54;;;;;;;16.90;5.15;;;10.90;99.90;;;;;;5078774;28;20055;-82
2022/05/14 01:30:20;;;;;;;20.42;6.80;;;10.90;99.90;;;;;;5078583;28;20108;-82
2022/05/14 01:32:46;;;;;;;20.80;5.22;;;10.90;99.90;;;;;;5078756;28;20037;-80
2022/05/14 01:35:16;;;;;;;20.58;6.30;;;11.00;99.90;;;;;;5078689;28;20032;-81
2022/05/14 01:37:43;;;;;;;23.25;6.05;;;11.00;99.90;;;;;;5078539;28;20085;-83
2022/05/14 01:40:08;;;;;;;20.42;6.43;;;11.30;99.90;;;;;;5078309;28;20041;-80
2022/05/14 01:42:34;;;;;;;19.77;6.80;;;10.90;99.90;;;;;;5067711;28;20052;-80
2022/05/14 01:45:00;;;;;;;20.83;7.28;;;10.80;99.90;;;;;;5061157;28;20047;-80
2022/05/14 01:47:25;;;;;;;31.42;8.40;;;10.80;99.90;;;;;;5059898;28;20071;-80
2022/05/14 01:49:51;;;;;;;24.48;8.07;;;10.80;99.90;;;;;;5059984;28;20392;-80
2022/05/14 01:52:16;;;;;;;23.25;8.98;;;10.70;99.90;;;;;;5058583;28;20033;-81
2022/05/14 01:54:42;;;;;;;32.25;9.05;;;10.70;99.90;;;;;;5057639;28;20111;-83
2022/05/14 01:57:07;;;;;;;28.55;7.05;;;10.70;99.90;;;;;;5056923;28;20358;-79
2022/05/14 01:59:33;;;;;;;23.25;8.55;;;10.60;99.90;;;;;;5092625;22;20040;-76
2022/05/14 02:02:00;;;;;;;27.98;7.90;;;10.50;99.90;;;;;;5052304;28;20072;-76
2022/05/14 02:04:26;;;;;;;24.38;9.52;;;10.40;99.90;;;;;;5053757;28;20044;-76
2022/05/14 02:06:52;;;;;;;27.88;9.40;;;10.30;99.90;;;;;;5053483;28;20412;-76
2022/05/14 02:09:19;;;;;;;31.25;8.40;;;10.30;99.90;;;;;;5053058;28;20037;-76
2022/05/14 02:11:45;;;;;;;27.05;9.27;;;10.20;99.90;;;;;;5052808;28;20037;-76
2022/05/14 02:14:11;;;;;;;28.25;9.05;;;10.10;99.90;;;;;;5052862;28;20505;-76
2022/05/14 02:16:37;;;;;;;34.55;10.25;;;10.10;99.90;;;;;;5052650;28;20090;-77
2022/05/14 02:19:04;;;;;;;36.95;10.35;;;10.10;99.90;;;;;;5051534;28;20049;-76
2022/05/14 02:21:32;;;;;;;33.15;10.07;;;10.00;99.90;;;;;;5052397;28;20413;-76
2022/05/14 02:23:59;;;;;;;38.13;11.30;;;9.80;99.90;;;;;;5051561;28;20055;-76
2022/05/14 02:26:24;;;;;;;33.65;9.38;;;9.70;99.90;;;;;;5051213;28;20048;-76
2022/05/14 02:28:50;;;;;;;32.97;10.27;;;9.70;99.90;;;;;;5052697;28;20378;-76
2022/05/14 02:31:16;;;;;;;39.05;11.77;;;9.60;99.90;;;;;;5052403;28;20095;-76
2022/05/14 02:33:42;;;;;;;34.65;11.60;;;9.50;99.90;;;;;;5051946;28;20036;-77
2022/05/14 02:36:08;;;;;;;38.33;10.43;;;9.40;99.90;;;;;;5051993;28;20052;-76
2022/05/14 02:38:36;;;;;;;35.35;11.45;;;9.40;99.90;;;;;;5052772;28;20162;-76
2022/05/14 02:41:03;;;;;;;33.17;11.85;;;9.30;99.90;;;;;;5052344;28;20044;-76
2022/05/14 02:43:29;;;;;;;38.22;12.20;;;9.30;99.90;;;;;;5050779;28;20064;-76
2022/05/14 02:45:54;;;;;;;46.17;12.43;;;9.30;99.90;;;;;;5052298;28;20485;-76
2022/05/14 02:48:20;;;;;;;51.17;13.55;;;9.30;99.90;;;;;;5052280;28;20400;-77
2022/05/14 02:50:45;;;;;;;46.22;14.52;;;9.20;99.90;;;;;;5052176;28;20041;-76
2022/05/14 02:53:11;;;;;;;39.53;13.15;;;9.20;99.90;;;;;;5051938;28;20136;-76
2022/05/14 02:55:37;;;;;;;34.67;12.85;;;9.30;99.90;;;;;;5052275;28;20073;-76
2022/05/14 02:58:02;;;;;;;37.58;12.95;;;9.20;99.90;;;;;;5052319;28;20045;-76
2022/05/14 03:00:28;;;;;;;41.22;13.68;;;9.10;99.90;;;;;;5052007;28;20057;-76
2022/05/14 03:02:54;;;;;;;60.75;15.20;;;9.10;99.90;;;;;;5052010;28;20077;-76
2022/05/14 03:05:22;;;;;;;44.05;15.15;;;9.10;99.90;;;;;;5051894;28;20437;-76
2022/05/14 03:07:48;;;;;;;57.60;15.15;;;9.10;99.90;;;;;;5052337;28;20041;-76
2022/05/14 03:10:14;;;;;;;49.63;15.50;;;9.10;99.90;;;;;;5050560;28;20478;-77
2022/05/14 03:12:40;;;;;;;40.63;14.48;;;9.10;99.90;;;;;;5052048;28;20051;-76
2022/05/14 03:15:08;;;;;;;50.55;14.18;;;9.20;99.90;;;;;;5052197;28;20045;-76
2022/05/14 03:17:35;;;;;;;51.33;16.02;;;9.20;99.90;;;;;;5052066;28;20120;-76
2022/05/14 03:20:06;;;;;;;49.88;16.70;;;9.20;99.90;;;;;;5052370;28;20124;-76
2022/05/14 03:22:33;;;;;;;44.47;16.23;;;9.30;99.90;;;;;;5051597;28;20493;-76
2022/05/14 03:24:58;;;;;;;48.17;16.05;;;9.30;99.90;;;;;;5051603;28;20154;-76
2022/05/14 03:27:24;;;;;;;64.75;18.60;;;9.30;99.90;;;;;;5052097;28;20127;-76
2022/05/14 03:29:49;;;;;;;57.25;16.30;;;9.20;99.90;;;;;;5051794;28;20485;-76
2022/05/14 03:32:15;;;;;;;66.38;17.95;;;9.20;99.90;;;;;;5051770;28;20187;-76
2022/05/14 03:34:41;;;;;;;58.20;18.42;;;9.10;99.90;;;;;;5051854;28;20041;-76
2022/05/14 03:37:06;;;;;;;68.10;20.15;;;9.10;99.90;;;;;;5051964;28;20037;-76
2022/05/14 03:39:32;;;;;;;69.68;19.77;;;9.20;99.90;;;;;;5051680;28;20056;-76
2022/05/14 03:41:58;;;;;;;76.72;20.15;;;9.20;99.90;;;;;;5051657;28;20044;-76
2022/05/14 03:44:23;;;;;;;64.35;19.23;;;9.20;99.90;;;;;;5051437;28;20477;-77
2022/05/14 03:46:49;;;;;;;69.90;21.35;;;9.10;99.90;;;;;;5052793;28;20120;-76
2022/05/14 03:49:14;;;;;;;65.00;20.02;;;9.10;99.90;;;;;;5055673;28;20174;-76
2022/05/14 03:51:40;;;;;;;68.13;21.05;;;9.10;99.90;;;;;;5055678;28;20485;-76
2022/05/14 03:54:05;;;;;;;71.57;21.40;;;9.10;99.90;;;;;;5055417;28;20048;-76
2022/05/14 03:56:32;;;;;;;59.80;19.92;;;9.10;99.90;;;;;;5055409;28;20033;-76
2022/05/14 03:58:58;;;;;;;73.63;19.30;;;9.10;99.90;;;;;;5055430;28;20091;-76
2022/05/14 04:01:23;;;;;;;65.07;20.85;;;9.20;99.90;;;;;;5054875;28;20084;-76
2022/05/14 04:03:49;;;;;;;73.72;20.00;;;9.20;99.90;;;;;;5055196;28;20049;-76
2022/05/14 04:06:15;;;;;;;69.20;20.17;;;9.30;99.90;;;;;;5055407;28;20044;-76
2022/05/14 04:08:40;;;;;;;70.13;22.05;;;9.30;99.90;;;;;;5055454;28;20071;-76
2022/05/14 04:11:07;;;;;;;69.22;20.08;;;9.40;99.90;;;;;;5053483;28;20477;-76
2022/05/14 04:13:33;;;;;;;76.93;21.00;;;9.40;99.90;;;;;;5055168;28;20086;-76
2022/05/14 04:15:58;;;;;;;76.32;21.35;;;9.40;99.90;;;;;;5054869;28;20067;-76
2022/05/14 04:18:24;;;;;;;69.45;20.27;;;9.50;99.90;;;;;;5055072;28;20060;-76
2022/05/14 04:20:58;;;;;;;57.30;20.52;;;9.60;99.90;;;;;;5055093;28;20059;-76
2022/05/14 04:23:28;;;;;;;58.78;17.90;;;9.50;99.90;;;;;;5054782;28;20045;-76
2022/05/14 04:25:54;;;;;;;62.75;18.92;;;9.60;99.90;;;;;;5054720;28;20530;-76
2022/05/14 04:28:20;;;;;;;74.80;19.63;;;9.70;99.90;;;;;;5054614;28;20478;-77
2022/05/14 04:30:48;;;;;;;65.95;21.33;;;9.70;99.90;;;;;;5053264;28;20067;-76
2022/05/14 04:33:15;;;;;;;72.80;20.17;;;9.80;99.90;;;;;;5054810;28;20045;-76
2022/05/14 04:35:41;;;;;;;67.05;20.55;;;10.00;99.90;;;;;;5053591;28;20052;-77
2022/05/14 04:38:07;;;;;;;69.25;18.77;;;10.10;99.90;;;;;;5054727;28;20041;-76
2022/05/14 04:40:33;;;;;;;60.03;19.30;;;10.10;99.90;;;;;;5054605;28;20070;-76
2022/05/14 04:42:59;;;;;;;67.20;18.17;;;10.20;99.90;;;;;;5054556;28;20052;-77
2022/05/14 04:45:24;;;;;;;61.53;19.27;;;10.20;99.90;;;;;;5054223;28;20045;-76
2022/05/14 04:47:50;;;;;;;54.80;17.52;;;10.20;99.90;;;;;;5054363;28;20120;-75
2022/05/14 04:50:16;;;;;;;64.60;16.58;;;10.30;99.90;;;;;;5054344;28;20166;-75
2022/05/14 04:52:41;;;;;;;62.53;16.20;;;10.40;99.90;;;;;;5054304;28;20080;-75
2022/05/14 04:55:08;;;;;;;53.03;18.70;;;10.60;99.90;;;;;;5053933;28;20483;-75
2022/05/14 04:57:34;;;;;;;62.83;18.65;;;10.60;99.90;;;;;;5053961;28;20056;-76
2022/05/14 05:00:00;;;;;;;56.75;16.88;;;10.70;99.90;;;;;;5053117;28;20057;-75
2022/05/14 05:05:13;;;;;;;52.35;18.27;;;10.70;99.90;;;;;;5052749;28;20045;-75
2022/05/14 05:07:39;;;;;;;47.42;15.50;;;10.70;99.90;;;;;;5053887;28;20055;-75
2022/05/14 05:10:05;;;;;;;43.72;16.48;;;10.70;99.90;;;;;;5052378;28;20041;-76
2022/05/14 05:12:31;;;;;;;56.03;15.95;;;10.70;99.90;;;;;;5054090;28;20044;-75
2022/05/14 05:14:56;;;;;;;50.35;15.50;;;10.60;99.90;;;;;;5053796;28;20047;-75
2022/05/14 05:17:22;;;;;;;52.47;16.92;;;10.60;99.90;;;;;;5053873;28;20045;-75
2022/05/14 05:19:48;;;;;;;46.30;14.93;;;10.60;99.90;;;;;;5054061;28;20051;-75
2022/05/14 05:22:13;;;;;;;51.92;15.55;;;10.60;99.90;;;;;;5053666;28;20063;-75
2022/05/14 05:24:39;;;;;;;55.78;15.73;;;10.80;99.90;;;;;;5053287;28;20048;-76
2022/05/14 05:27:05;;;;;;;38.40;11.63;;;11.30;99.90;;;;;;5053687;28;20048;-76
2022/05/14 05:29:30;;;;;;;45.80;12.43;;;12.10;99.90;;;;;;5052122;28;20121;-75
2022/05/14 05:31:56;;;;;;;31.50;9.48;;;12.90;99.90;;;;;;5053404;28;20135;-76
2022/05/14 05:34:21;;;;;;;35.13;10.20;;;13.30;99.90;;;;;;5053504;28;20079;-76
2022/05/14 05:36:47;;;;;;;27.02;9.40;;;13.80;99.90;;;;;;5053359;28;20052;-76
2022/05/14 05:39:13;;;;;;;35.50;8.98;;;13.90;99.90;;;;;;5053446;28;20041;-77
2022/05/14 05:41:38;;;;;;;33.65;9.70;;;13.80;99.90;;;;;;5053371;28;20044;-76
2022/05/14 05:44:04;;;;;;;35.70;10.25;;;13.80;99.90;;;;;;5053317;28;20041;-76
2022/05/14 05:46:32;;;;;;;32.75;9.77;;;13.50;99.90;;;;;;5053249;28;20114;-76
2022/05/14 05:48:58;;;;;;;33.83;10.75;;;13.40;99.90;;;;;;5053014;28;20056;-76
2022/05/14 05:51:24;;;;;;;32.75;10.70;;;13.30;99.90;;;;;;5050603;28;20037;-75
2022/05/14 05:56:46;;;;;;;39.28;11.63;;;13.10;99.90;;;;;;5053202;28;20045;-76
2022/05/14 05:59:14;;;;;;;35.13;9.73;;;13.20;99.90;;;;;;5052838;28;20485;-76
2022/05/14 06:01:40;;;;;;;36.33;9.20;;;13.20;99.90;;;;;;5052081;28;20552;-76
2022/05/14 06:04:05;;;;;;;37.80;10.85;;;13.40;99.90;;;;;;5053123;28;20056;-76
2022/05/14 06:06:31;;;;;;;36.15;10.57;;;13.40;99.90;;;;;;5052899;28;20493;-76
2022/05/14 06:08:58;;;;;;;28.67;9.68;;;13.50;99.90;;;;;;5051613;28;20120;-76
2022/05/14 06:11:25;;;;;;;29.92;9.88;;;13.70;99.90;;;;;;5051676;28;20052;-76
2022/05/14 06:13:51;;;;;;;38.35;10.10;;;13.70;99.90;;;;;;5051972;28;20044;-76
2022/05/14 06:16:17;;;;;;;32.20;10.88;;;13.80;99.90;;;;;;5052439;28;20037;-75
2022/05/14 06:18:43;;;;;;;38.65;9.25;;;13.90;99.90;;;;;;5051311;28;20045;-75
2022/05/14 06:21:09;;;;;;;30.65;9.82;;;14.00;99.90;;;;;;5052810;28;20189;-75
2022/05/14 06:23:35;;;;;;;34.08;9.52;;;14.20;99.90;;;;;;5052646;28;20045;-75
2022/05/14 06:26:00;;;;;;;30.35;10.02;;;14.40;99.90;;;;;;5052333;28;20551;-76
2022/05/14 06:28:26;;;;;;;33.67;10.23;;;14.60;99.90;;;;;;5052660;28;20040;-76
2022/05/14 06:30:52;;;;;;;34.28;11.38;;;14.80;99.90;;;;;;5052021;28;20040;-76
2022/05/14 06:33:18;;;;;;;32.38;7.68;;;15.10;99.90;;;;;;5052358;28;20119;-76
2022/05/14 06:35:45;;;;;;;25.40;7.85;;;15.50;99.90;;;;;;5052324;28;20080;-76
2022/05/14 06:38:11;;;;;;;27.38;7.53;;;16.10;99.90;;;;;;5051660;28;20052;-77
2022/05/14 06:40:37;;;;;;;37.85;7.70;;;16.80;99.90;;;;;;5049250;28;20041;-77
2022/05/14 06:43:03;;;;;;;27.00;7.53;;;17.20;99.90;;;;;;5049565;28;20045;-77
2022/05/14 06:45:30;;;;;;;20.30;6.88;;;17.70;99.90;;;;;;5048061;28;20179;-77
2022/05/14 06:47:56;;;;;;;26.60;7.03;;;18.10;99.90;;;;;;5032084;28;20081;-77
2022/05/14 06:50:22;;;;;;;23.67;7.05;;;18.60;99.90;;;;;;5050036;28;20124;-79
2022/05/14 06:52:52;;;;;;;24.95;7.30;;;19.20;99.90;;;;;;5050411;28;20137;-78
2022/05/14 06:55:21;;;;;;;26.20;7.18;;;19.70;95.20;;;;;;5049857;28;20036;-78
2022/05/14 06:57:48;;;;;;;24.75;6.45;;;20.30;87.70;;;;;;5048531;28;20056;-78
2022/05/14 07:00:14;;;;;;;22.20;5.22;;;20.70;75.50;;;;;;5049552;28;20057;-77
2022/05/14 07:02:41;;;;;;;27.58;7.03;;;20.90;60.70;;;;;;5050032;28;20056;-78
2022/05/14 07:07:52;;;;;;;27.65;7.13;;;20.80;52.80;;;;;;5048705;28;20052;-77
2022/05/14 07:10:18;;;;;;;23.98;5.90;;;21.20;53.20;;;;;;5049468;28;20485;-78
2022/05/14 07:12:43;;;;;;;22.40;6.28;;;22.10;35.50;;;;;;5049777;28;20037;-78
2022/05/14 07:15:11;;;;;;;19.20;5.18;;;22.30;28.00;;;;;;5049913;28;20179;-78
2022/05/14 07:17:37;;;;;;;20.92;5.07;;;22.50;24.40;;;;;;5050244;28;20068;-77
2022/05/14 07:20:03;;;;;;;29.67;6.10;;;22.20;11.10;;;;;;5049836;28;20762;-78
2022/05/14 07:22:29;;;;;;;23.77;4.65;;;22.10;19.70;;;;;;5052493;28;20060;-78
2022/05/14 07:24:54;;;;;;;19.15;4.97;;;22.30;11.80;;;;;;5055531;28;20045;-78
2022/05/14 07:27:20;;;;;;;17.23;4.43;;;22.10;18.60;;;;;;5054745;28;20045;-78
2022/05/14 07:29:45;;;;;;;20.88;5.13;;;22.70;12.10;;;;;;5051784;28;20045;-77
2022/05/14 07:32:13;;;;;;;20.75;5.22;;;21.90;10.10;;;;;;5053662;28;20048;-78
2022/05/14 07:34:39;;;;;;;25.00;5.95;;;21.00;16.80;;;;;;5053801;28;20041;-78
2022/05/14 07:37:13;;;;;;;17.40;5.45;;;20.30;22.70;;;;;;5053509;28;20049;-77
2022/05/14 07:39:47;;;;;;;19.48;4.70;;;20.40;25.80;;;;;;5051501;28;20307;-77
2022/05/14 07:42:17;;;;;;;16.77;4.32;;;20.40;25.30;;;;;;5053033;28;20075;-77
2022/05/14 07:44:48;;;;;;;21.90;4.32;;;21.50;22.30;;;;;;5053317;28;20049;-76
2022/05/14 07:47:14;;;;;;;19.92;5.38;;;22.00;15.40;;;;;;5054265;28;20389;-77
2022/05/14 07:49:43;;;;;;;24.75;5.13;;;22.10;16.60;;;;;;5054907;28;20051;-77
2022/05/14 07:52:09;;;;;;;24.63;5.05;;;22.60;12.40;;;;;;5055678;28;20044;-77
2022/05/14 07:54:34;;;;;;;20.83;4.82;;;23.20;8.00;;;;;;5055401;28;20041;-77
2022/05/14 07:57:02;;;;;;;18.08;3.85;;;23.20;1.90;;;;;;5052531;28;20047;-77
2022/05/14 07:59:28;;;;;;;17.48;4.72;;;23.90;1.00;;;;;;5053093;28;20203;-76
2022/05/14 08:01:53;;;;;;;17.27;4.47;;;23.70;1.00;;;;;;5052937;28;20496;-77
2022/05/14 08:04:19;;;;;;;25.67;4.45;;;24.00;1.00;;;;;;5053053;28;20045;-77
2022/05/14 08:06:44;;;;;;;15.98;4.75;;;24.20;1.00;;;;;;5052585;28;20048;-77
2022/05/14 08:09:10;;;;;;;18.08;4.63;;;24.90;1.00;;;;;;5052606;28;20044;-77
2022/05/14 08:11:35;;;;;;;17.17;4.10;;;24.90;1.00;;;;;;5052508;28;20053;-77
2022/05/14 08:14:01;;;;;;;14.68;5.03;;;24.10;1.00;;;;;;5053115;28;20461;-77
2022/05/14 08:16:27;;;;;;;16.63;4.25;;;23.90;1.00;;;;;;5062079;28;20078;-77
2022/05/14 08:18:53;;;;;;;17.50;4.35;;;24.50;1.00;;;;;;5073038;28;20465;-77
2022/05/14 08:26:50;;;;;;;20.80;5.72;;;25.30;1.00;;;;;;5052162;28;20103;-77
2022/05/14 08:29:17;;;;;;;16.90;4.57;;;25.40;1.00;;;;;;5052626;28;20049;-78
2022/05/14 08:31:43;;;;;;;20.40;4.28;;;25.60;1.00;;;;;;5051938;28;20102;-77
2022/05/14 08:34:08;;;;;;;20.00;4.32;;;25.50;1.00;;;;;;5052930;28;20139;-75
2022/05/14 08:36:35;;;;;;;15.02;4.47;;;24.70;1.00;;;;;;5054733;28;20083;-77
2022/05/14 08:39:00;;;;;;;19.77;4.93;;;25.00;1.00;;;;;;5054560;28;20466;-77
2022/05/14 08:41:26;;;;;;;15.43;4.32;;;25.00;1.00;;;;;;5053269;28;20175;-76
2022/05/14 08:43:57;;;;;;;20.23;5.43;;;24.20;1.00;;;;;;5053059;28;20102;-76
2022/05/14 08:46:25;;;;;;;21.55;4.95;;;24.20;1.00;;;;;;5053143;28;20355;-76
2022/05/14 08:48:54;;;;;;;19.75;4.55;;;25.50;1.00;;;;;;5052984;28;20047;-75
2022/05/14 08:51:25;;;;;;;23.58;4.90;;;25.00;1.00;;;;;;5051815;28;20049;-77
2022/05/14 08:53:51;;;;;;;17.40;4.97;;;25.80;1.00;;;;;;5051949;28;20523;-77
2022/05/14 08:56:20;;;;;;;17.63;4.07;;;26.10;1.00;;;;;;5051160;28;20049;-77
2022/05/14 08:59:13;;;;;;;26.40;5.55;;;26.10;1.00;;;;;;5051290;28;20069;-76
2022/05/14 09:01:42;;;;;;;22.95;4.63;;;26.10;1.00;;;;;;5052235;28;20083;-76
2022/05/14 09:04:11;;;;;;;22.42;4.97;;;25.50;1.00;;;;;;5052714;28;20130;-76
2022/05/14 09:06:37;;;;;;;24.33;5.40;;;24.90;1.00;;;;;;5052702;28;20067;-77
2022/05/14 09:09:03;;;;;;;20.85;4.90;;;23.70;1.00;;;;;;5052598;28;20148;-76
2022/05/14 09:11:39;;;;;;;20.10;4.63;;;23.40;1.00;;;;;;5051856;28;20049;-77
2022/05/14 09:14:24;;;;;;;21.13;4.65;;;23.10;1.00;;;;;;5052399;28;20117;-76
2022/05/14 09:16:57;;;;;;;16.08;4.05;;;22.80;1.00;;;;;;5051992;28;20063;-76
2022/05/14 09:19:24;;;;;;;16.83;3.83;;;23.10;1.00;;;;;;5049740;28;20055;-75
2022/05/14 09:21:57;;;;;;;23.92;5.15;;;23.40;1.00;;;;;;5054356;28;20052;-76
2022/05/14 09:24:30;;;;;;;21.17;4.78;;;23.30;1.00;;;;;;5070366;28;20044;-76
2022/05/14 09:27:09;;;;;;;19.35;5.35;;;24.40;1.00;;;;;;5050033;28;20532;-76
2022/05/14 09:29:40;;;;;;;15.90;4.45;;;25.50;1.00;;;;;;5049914;28;20497;-77
2022/05/14 09:32:14;;;;;;;22.08;5.07;;;25.80;1.00;;;;;;5050251;28;20497;-76
2022/05/14 09:34:40;;;;;;;13.32;4.45;;;25.30;1.00;;;;;;5049831;28;20076;-76
2022/05/14 09:37:10;;;;;;;20.95;4.45;;;24.40;1.00;;;;;;5050204;28;20083;-76
2022/05/14 09:39:36;;;;;;;19.55;5.07;;;23.80;1.00;;;;;;5050034;28;20497;-76
2022/05/14 09:42:04;;;;;;;21.92;5.03;;;23.40;1.00;;;;;;5050171;28;20107;-76
2022/05/14 09:44:49;;;;;;;18.55;3.97;;;23.60;1.00;;;;;;5049896;28;20398;-76
2022/05/14 09:47:27;;;;;;;16.70;4.65;;;23.60;1.00;;;;;;5050913;28;20044;-76
2022/05/14 09:50:03;;;;;;;21.83;4.70;;;22.70;1.00;;;;;;5048507;28;20448;-76
2022/05/14 09:52:32;;;;;;;13.43;4.22;;;23.10;1.00;;;;;;5050882;28;20132;-76
2022/05/14 09:55:03;;;;;;;23.98;4.40;;;23.50;1.00;;;;;;5051732;28;20116;-76
2022/05/14 09:57:54;;;;;;;18.33;5.68;;;23.60;1.00;;;;;;5051228;28;20533;-76
2022/05/14 10:00:38;;;;;;;19.38;5.20;;;23.90;1.00;;;;;;5051326;28;20057;-76
2022/05/14 10:03:49;;;;;;;19.65;4.80;;;24.20;1.00;;;;;;5051616;28;20040;-76
2022/05/14 10:06:33;;;;;;;17.88;4.60;;;24.10;1.00;;;;;;5031457;28;20054;-77
2022/05/14 10:09:26;;;;;;;21.42;5.05;;;23.90;1.00;;;;;;5037576;28;20059;-77
2022/05/14 10:12:06;;;;;;;22.70;5.88;;;23.90;1.00;;;;;;5050664;28;20512;-76
2022/05/14 10:14:36;;;;;;;18.83;4.10;;;23.60;1.00;;;;;;5051387;28;20110;-76
2022/05/14 10:17:20;;;;;;;22.10;5.18;;;23.30;1.00;;;;;;5051331;28;20052;-76
2022/05/14 10:20:20;;;;;;;17.85;5.10;;;22.80;1.00;;;;;;5051361;28;20110;-76
2022/05/14 10:29:09;;;;;;;20.42;4.05;;;22.10;1.00;;;;;;5048912;28;20053;-76
2022/05/14 10:31:51;;;;;;;22.30;5.47;;;22.40;1.00;;;;;;5049283;28;20099;-76
2022/05/14 10:34:23;;;;;;;22.42;5.05;;;21.80;1.00;;;;;;5049609;28;20049;-76
2022/05/14 10:37:03;;;;;;;18.45;4.68;;;22.00;1.00;;;;;;5049121;28;20051;-74
2022/05/14 10:40:13;;;;;;;19.48;4.60;;;23.00;1.00;;;;;;5048829;28;20056;-76
2022/05/14 10:42:43;;;;;;;18.13;4.50;;;23.30;1.00;;;;;;4987418;28;20084;-77
2022/05/14 10:45:18;;;;;;;21.48;4.80;;;23.30;1.00;;;;;;5041978;28;20064;-75
2022/05/14 10:48:00;;;;;;;16.08;4.70;;;23.00;1.00;;;;;;5049129;28;20056;-75
2022/05/14 10:50:29;;;;;;;18.58;4.03;;;22.60;1.00;;;;;;5048723;28;20045;-75
2022/05/14 10:52:56;;;;;;;23.60;4.70;;;22.50;1.00;;;;;;5048905;28;20455;-74
2022/05/14 10:55:29;;;;;;;21.02;5.00;;;22.60;1.00;;;;;;5048422;28;20071;-76
2022/05/14 10:58:00;;;;;;;19.95;4.50;;;22.20;1.00;;;;;;5049833;28;20060;-74
2022/05/14 11:00:28;;;;;;;23.55;4.85;;;22.40;1.00;;;;;;5051338;28;20041;-74
2022/05/14 11:03:08;;;;;;;21.02;4.80;;;22.10;1.00;;;;;;5051136;28;20048;-75
2022/05/14 11:05:49;;;;;;;14.98;5.22;;;22.30;1.00;;;;;;5052289;28;20108;-75
2022/05/14 11:08:31;;;;;;;18.23;5.03;;;22.60;1.00;;;;;;5052115;28;20452;-75
2022/05/14 11:11:13;;;;;;;19.88;5.43;;;22.40;1.00;;;;;;5052128;28;20080;-75
2022/05/14 11:13:39;;;;;;;16.13;4.97;;;22.80;1.00;;;;;;5052075;28;20048;-75
2022/05/14 11:16:12;;;;;;;15.90;4.05;;;22.90;1.00;;;;;;5051725;28;20094;-75
2022/05/14 11:18:47;;;;;;;17.02;4.90;;;23.20;1.00;;;;;;5052022;28;20053;-74
2022/05/14 11:21:14;;;;;;;26.73;5.35;;;22.80;1.00;;;;;;5050330;28;20048;-75
2022/05/14 11:23:59;;;;;;;18.40;4.60;;;22.20;1.00;;;;;;5050803;28;20140;-75
2022/05/14 11:26:26;;;;;;;20.52;4.30;;;22.00;1.00;;;;;;5051358;28;20037;-75
2022/05/14 11:29:18;;;;;;;26.95;5.07;;;22.00;1.00;;;;;;5033899;28;20045;-75
2022/05/14 11:32:02;;;;;;;22.70;4.45;;;21.70;1.00;;;;;;5051615;28;20044;-75
2022/05/14 11:34:28;;;;;;;21.92;4.47;;;22.10;1.00;;;;;;5051406;28;20460;-74
2022/05/14 11:36:57;;;;;;;17.05;4.75;;;21.40;1.00;;;;;;5051799;28;20489;-75
2022/05/14 11:39:25;;;;;;;20.30;4.75;;;21.20;1.00;;;;;;5051733;28;20045;-75
2022/05/14 11:41:54;;;;;;;41.08;6.70;;;21.30;1.00;;;;;;5051649;28;20045;-74
2022/05/14 11:44:32;;;;;;;27.10;4.93;;;21.50;1.00;;;;;;5051545;28;20048;-74
2022/05/14 11:46:59;;;;;;;18.33;4.63;;;21.60;1.00;;;;;;5051859;28;20053;-75
2022/05/14 11:49:41;;;;;;;17.95;4.68;;;22.10;1.00;;;;;;5051748;28;20397;-75
2022/05/14 11:52:17;;;;;;;20.77;4.85;;;23.20;1.00;;;;;;5051452;28;20132;-75
2022/05/14 11:55:04;;;;;;;21.38;5.75;;;24.50;1.00;;;;;;5051513;28;20045;-75
2022/05/14 11:57:41;;;;;;;20.50;4.53;;;24.80;1.00;;;;;;5051865;28;20059;-75
2022/05/14 12:00:14;;;;;;;20.98;4.88;;;24.70;1.00;;;;;;5051323;28;20563;-75
2022/05/14 12:03:03;;;;;;;15.15;4.60;;;24.30;1.00;;;;;;5051499;28;20037;-75
2022/05/14 12:05:33;;;;;;;19.10;4.22;;;23.40;1.00;;;;;;5031793;28;20095;-74
2022/05/14 12:08:17;;;;;;;16.95;4.93;;;23.90;1.00;;;;;;5031786;28;20049;-74
2022/05/14 12:11:01;;;;;;;18.40;5.32;;;24.60;1.00;;;;;;5035005;28;20494;-75
2022/05/14 12:13:48;;;;;;;18.40;4.57;;;25.00;1.00;;;;;;5039494;28;20041;-75
2022/05/14 12:16:15;;;;;;;14.95;4.30;;;26.00;1.00;;;;;;5055024;28;20120;-75
2022/05/14 12:18:42;;;;;;;23.25;4.85;;;27.20;1.00;;;;;;5055045;28;20166;-75
2022/05/14 12:21:09;;;;;;;15.63;4.30;;;27.30;1.00;;;;;;5054947;28;20515;-75
2022/05/14 12:23:47;;;;;;;19.40;5.25;;;26.90;1.00;;;;;;5054316;28;20781;-75
2022/05/14 12:26:29;;;;;;;17.77;4.32;;;26.30;1.00;;;;;;5054831;28;20126;-75
2022/05/14 12:28:57;;;;;;;20.80;4.70;;;25.50;1.00;;;;;;5054863;28;20055;-75
2022/05/14 12:34:19;;;;;;;19.50;5.05;;;24.50;1.00;;;;;;5054625;28;20045;-74
2022/05/14 12:36:54;;;;;;;18.65;4.80;;;24.00;1.00;;;;;;5054759;28;20045;-75
2022/05/14 12:39:27;;;;;;;15.95;5.07;;;23.50;1.00;;;;;;5054514;28;20049;-75
2022/05/14 12:41:56;;;;;;;18.25;5.32;;;22.90;1.00;;;;;;5054496;28;20497;-76
2022/05/14 12:44:34;;;;;;;18.45;5.07;;;23.10;1.00;;;;;;5053848;28;20616;-75
2022/05/14 12:47:03;;;;;;;14.45;4.35;;;23.20;1.00;;;;;;5053962;28;20037;-75
2022/05/14 12:49:37;;;;;;;20.48;5.18;;;23.30;1.00;;;;;;5054414;28;20044;-75
2022/05/14 12:52:10;;;;;;;16.87;4.87;;;23.70;1.00;;;;;;5054491;28;20080;-75
2022/05/14 12:54:41;;;;;;;15.32;4.50;;;24.20;1.00;;;;;;5053914;28;20045;-76
2022/05/14 12:57:10;;;;;;;21.38;6.10;;;24.40;1.00;;;;;;5054627;28;20413;-75
2022/05/14 12:59:36;;;;;;;22.15;4.97;;;23.80;1.00;;;;;;5054014;28;20087;-75
2022/05/14 13:02:22;;;;;;;14.30;3.67;;;23.90;1.00;;;;;;5053996;28;20048;-74
2022/05/14 13:04:59;;;;;;;20.55;4.07;;;24.20;1.00;;;;;;5053445;28;20417;-74
2022/05/14 13:07:26;;;;;;;21.17;4.45;;;24.10;1.00;;;;;;5054115;28;20045;-74
2022/05/14 13:09:52;;;;;;;16.20;4.20;;;23.20;1.00;;;;;;5053730;28;20045;-75
2022/05/14 13:12:23;;;;;;;17.75;3.97;;;23.30;1.00;;;;;;5052675;28;20444;-75
2022/05/14 13:14:53;;;;;;;23.30;5.80;;;23.20;1.00;;;;;;5053653;28;20045;-74
2022/05/14 13:17:19;;;;;;;17.85;5.20;;;23.30;1.00;;;;;;5053912;28;20409;-75